European Seaway — MPDG3 — position and weather

sailwx.info

Track history (hours):
 
Tides and Currents Weather Stations Pressure Air Temp Water Temp Dewpoint Dewpoint Depression Visibility Wind Speed Wind Dir Waves Ship Positions

European Seaway

Operator: P & O Ferries

Last reported at 2019-Jan-24 06:00 UTC. Time now 2019-Jan-24 06:22 UTC.
Position N 51°02' E 001°34'.

Length 180 m; draft 5.5 m.

Type: Passenger vessel. MMSI: 232001040.

Date/timePositionNaut miles runAvg speedWind from/ knotsBaromVisibWave heightAir tempDewpointWater temp
2019-Jan-24 06:00N 51°02' E 001°34'1019.4
2019-Jan-24 05:30N 51°07' E 001°21'1 1.2
2019-Jan-24 05:01N 51°07' E 001°20'0 0.0
2019-Jan-24 04:29N 51°07' E 001°20'0 0.3
2019-Jan-24 04:01N 51°07' E 001°20'815.2
2019-Jan-24 03:30N 51°05' E 001°31'917.2
2019-Jan-24 03:00N 50°59' E 001°42'611.2
2019-Jan-24 02:30N 50°58' E 001°51'0 0.0
2019-Jan-24 02:00N 50°58' E 001°51'0 0.0
2019-Jan-24 01:28N 50°58' E 001°51'2 3.8
2019-Jan-24 01:00N 50°58' E 001°48'1019.0
2019-Jan-24 00:30N 51°01' E 001°34'1019.8
2019-Jan-24 00:00N 51°07' E 001°21'1 1.5
2019-Jan-23 23:30N 51°07' E 001°20'0 0.3
2019-Jan-23 23:00N 51°07' E 001°20'816.2
2019-Jan-23 22:30N 51°03' E 001°31'1020.3
2019-Jan-23 22:00N 50°58' E 001°45'4 7.1
2019-Jan-23 21:30N 50°58' E 001°51'0 0.0
2019-Jan-23 21:00N 50°58' E 001°51'5 9.6
2019-Jan-23 20:30N 50°58' E 001°43'918.7
2019-Jan-23 20:01N 51°03' E 001°31'8 6.4
2019-Jan-23 18:45N 51°07' E 001°20'1 4.3
2019-Jan-23 18:31N 51°07' E 001°22'1019.3
2019-Jan-23 18:00N 51°03' E 001°36'918.8
2019-Jan-23 17:30N 50°58' E 001°48'2 4.0
2019-Jan-23 17:00N 50°58' E 001°52'0 0.0
2019-Jan-23 16:30N 50°58' E 001°52'4 7.3
2019-Jan-23 16:01N 50°58' E 001°46'1019.6
2019-Jan-23 15:30N 51°02' E 001°32'917.5
2019-Jan-23 14:59N 51°07' E 001°20'0 0.0
2019-Jan-23 14:30N 51°07' E 001°20'0 0.2
2019-Jan-23 14:00N 51°07' E 001°20'815.8
2019-Jan-23 13:30N 51°05' E 001°32'918.4
2019-Jan-23 13:00N 50°59' E 001°44'510.2
2019-Jan-23 12:30N 50°58' E 001°52'0 0.0
2019-Jan-23 12:00N 50°58' E 001°52'1 2.1
2019-Jan-23 11:31N 50°58' E 001°50'1020.0
2019-Jan-23 11:00N 50°60' E 001°34'1019.9
2019-Jan-23 10:31N 51°05' E 001°21'2 4.1
2019-Jan-23 09:57N 51°07' E 001°20'0 0.0
2019-Jan-23 09:30N 51°07' E 001°20'5 9.8
2019-Jan-23 09:01N 51°05' E 001°27'1019.6
2019-Jan-23 08:30N 50°60' E 001°40'815.2
2019-Jan-23 08:00N 50°58' E 001°52'0 0.1
2019-Jan-23 07:31N 50°58' E 001°52'0 0.0
2019-Jan-23 07:01N 50°58' E 001°52'4 7.6
2019-Jan-23 06:31N 50°58' E 001°46'917.7
2019-Jan-23 06:01N 51°02' E 001°33'918.8
2019-Jan-23 05:31N 51°07' E 001°21'0 0.9
2019-Jan-23 05:00N 51°07' E 001°20'0 0.0
2019-Jan-23 04:30N 51°07' E 001°20'0 0.4
2019-Jan-23 04:01N 51°07' E 001°20'816.3
2019-Jan-23 03:30N 51°05' E 001°33'918.0
2019-Jan-23 03:00N 50°59' E 001°43'510.4
2019-Jan-23 02:30N 50°58' E 001°52'0 0.0
2019-Jan-23 02:00N 50°58' E 001°52'0 0.0
2019-Jan-23 01:30N 50°58' E 001°52'0 0.0
2019-Jan-23 01:00N 50°58' E 001°52'0 0.0
2019-Jan-23 00:30N 50°58' E 001°52'0 0.0
2019-Jan-22 23:58N 50°58' E 001°52'0 0.0
2019-Jan-22 23:28N 50°58' E 001°52'0 0.0
2019-Jan-22 22:58N 50°58' E 001°52'0 0.0
2019-Jan-22 22:28N 50°58' E 001°52'0 0.0
2019-Jan-22 21:46N 50°58' E 001°52'0 0.0
2019-Jan-22 21:28N 50°58' E 001°52'1 2.9
2019-Jan-22 21:00N 50°58' E 001°50'816.4
2019-Jan-22 20:31N 50°59' E 001°37'918.3
2019-Jan-22 20:01N 51°05' E 001°25'4 6.1
2019-Jan-22 19:21N 51°07' E 001°20'0 0.0
2019-Jan-22 19:00N 51°07' E 001°20'3 6.2
2019-Jan-22 18:30N 51°07' E 001°25'1019.4
2019-Jan-22 18:00N 51°02' E 001°38'917.4
2019-Jan-22 17:30N 50°58' E 001°51'1 1.2
2019-Jan-22 17:00N 50°58' E 001°52'0 0.0
2019-Jan-22 16:30N 50°58' E 001°52'613.2
2019-Jan-22 16:00N 50°58' E 001°41'1019.1
2019-Jan-22 15:31N 51°04' E 001°29'712.5
2019-Jan-22 14:59N 51°07' E 001°20'0 0.0
2019-Jan-22 14:30N 51°07' E 001°20'2 4.0
2019-Jan-22 14:00N 51°07' E 001°23'917.5
2019-Jan-22 13:30N 51°03' E 001°35'917.3
2019-Jan-22 13:00N 50°58' E 001°47'3 6.0
2019-Jan-22 12:31N 50°58' E 001°52'0 0.0
2019-Jan-22 12:01N 50°58' E 001°52'3 5.4
2019-Jan-22 11:30N 50°58' E 001°47'917.9
2019-Jan-22 11:01N 51°00' E 001°34'918.3
2019-Jan-22 10:31N 51°06' E 001°23'2 4.1
2019-Jan-22 10:00N 51°07' E 001°20'0 0.0
2019-Jan-22 09:30N 51°07' E 001°20'3 6.7
2019-Jan-22 09:00N 51°07' E 001°25'918.8
2019-Jan-22 08:30N 51°02' E 001°38'816.7
2019-Jan-22 08:01N 50°58' E 001°50'1 1.9
2019-Jan-22 07:30N 50°58' E 001°52'0 0.0
2019-Jan-22 07:00N 50°58' E 001°52'3 6.7
2019-Jan-22 06:30N 50°58' E 001°46'817.0
2019-Jan-22 06:00N 51°01' E 001°34'918.6
2019-Jan-22 05:30N 51°07' E 001°22'2 3.0
2019-Jan-22 05:00N 51°07' E 001°20'0 0.0
2019-Jan-22 04:30N 51°07' E 001°20'0 0.3
2019-Jan-22 04:01N 51°07' E 001°20'1616.4
2019-Jan-22 03:00N 50°59' E 001°43'611.4
2019-Jan-22 02:30N 50°58' E 001°52'0 0.0
2019-Jan-22 02:00N 50°58' E 001°52'0 0.0
2019-Jan-22 01:30N 50°58' E 001°52'0 0.0
2019-Jan-22 01:00N 50°58' E 001°52'0 0.0
2019-Jan-22 00:30N 50°58' E 001°52'0 0.0
2019-Jan-22 00:00N 50°58' E 001°52'0 0.0
2019-Jan-21 23:30N 50°58' E 001°52'0 0.0
2019-Jan-21 23:00N 50°58' E 001°52'0 0.0
2019-Jan-21 22:30N 50°58' E 001°52'0 0.0
2019-Jan-21 21:59N 50°58' E 001°52'0 0.0
2019-Jan-21 21:30N 50°58' E 001°52'0 0.0
2019-Jan-21 20:59N 50°58' E 001°52'1 2.8
2019-Jan-21 20:31N 50°59' E 001°50'816.3
2019-Jan-21 20:00N 50°60' E 001°37'917.0
2019-Jan-21 19:30N 51°05' E 001°26'4 8.8
2019-Jan-21 19:01N 51°07' E 001°20'0 0.0
2019-Jan-21 18:30N 51°07' E 001°20'510.5
2019-Jan-21 18:00N 51°06' E 001°28'917.9
2019-Jan-21 17:30N 51°01' E 001°40'714.8
2019-Jan-21 17:01N 50°58' E 001°51'0 0.5
2019-Jan-21 16:30N 50°58' E 001°51'0 0.0
2019-Jan-21 16:00N 50°58' E 001°51'611.6
2019-Jan-21 15:31N 50°58' E 001°42'1019.8
2019-Jan-21 15:01N 51°04' E 001°29'713.0
2019-Jan-21 14:30N 51°07' E 001°20'0 0.0
2019-Jan-21 13:56N 51°07' E 001°20'4 9.2
2019-Jan-21 13:31N 51°07' E 001°26'918.6
2019-Jan-21 13:01N 51°01' E 001°38'816.4
2019-Jan-21 12:31N 50°58' E 001°51'0 0.7
2019-Jan-21 12:01N 50°58' E 001°51'0 0.0
2019-Jan-21 11:29N 50°58' E 001°51'613.2
2019-Jan-21 11:00N 50°59' E 001°41'918.7
2019-Jan-21 10:30N 51°03' E 001°28'612.9
2019-Jan-21 10:00N 51°07' E 001°20'0 0.0
2019-Jan-21 09:26N 51°07' E 001°20'0 0.5
2019-Jan-21 09:00N 51°07' E 001°20'816.4
2019-Jan-21 08:30N 51°04' E 001°32'1019.6
2019-Jan-21 08:00N 50°58' E 001°45'4 8.1
2019-Jan-21 07:31N 50°58' E 001°51'0 0.0
2019-Jan-21 07:00N 50°58' E 001°51'3 5.4
2019-Jan-21 06:31N 50°58' E 001°47'815.5
2019-Jan-21 06:00N 51°01' E 001°35'917.6
2019-Jan-21 05:31N 51°06' E 001°24'3 4.5
2019-Jan-21 04:53N 51°07' E 001°20'0 0.0
2019-Jan-21 04:28N 51°07' E 001°20'0 0.3
2019-Jan-21 04:00N 51°07' E 001°20'713.9
2019-Jan-21 03:31N 51°04' E 001°30'816.4
2019-Jan-21 03:01N 50°60' E 001°41'612.8
2019-Jan-21 02:31N 50°58' E 001°51'0 0.3
2019-Jan-21 02:00N 50°58' E 001°51'0 0.0
2019-Jan-21 01:30N 50°58' E 001°51'0 0.0
2019-Jan-21 01:01N 50°58' E 001°51'0 0.0
2019-Jan-21 00:30N 50°58' E 001°51'0 0.0
2019-Jan-21 00:00N 50°58' E 001°51'0 0.0
2019-Jan-20 23:29N 50°58' E 001°51'0 0.0
2019-Jan-20 23:00N 50°58' E 001°51'0 0.0
2019-Jan-20 22:07N 50°58' E 001°51'0 0.0
2019-Jan-20 21:49N 50°58' E 001°51'0 0.0
2019-Jan-20 21:01N 50°58' E 001°51'0 0.0
2019-Jan-20 21:00N 50°58' E 001°51'3 5.9
2019-Jan-20 20:30N 50°58' E 001°46'815.6
2019-Jan-20 20:00N 51°00' E 001°34'815.2
2019-Jan-20 19:30N 51°05' E 001°25'4 7.0
2019-Jan-20 18:56N 51°07' E 001°20'0 0.0
2019-Jan-20 18:30N 51°07' E 001°20'5 9.6
2019-Jan-20 18:00N 51°05' E 001°27'917.9
2019-Jan-20 17:30N 51°00' E 001°39'815.8
2019-Jan-20 17:00N 50°58' E 001°51'0 0.2
2019-Jan-20 16:24N 50°58' E 001°51'0 0.0
2019-Jan-20 16:00N 50°58' E 001°51'0 0.0
2019-Jan-20 15:30N 50°58' E 001°51'0 0.0
2019-Jan-20 15:01N 50°58' E 001°51'0 0.0
2019-Jan-20 14:30N 50°58' E 001°51'0 0.0
2019-Jan-20 14:00N 50°58' E 001°51'0 0.0
2019-Jan-20 13:30N 50°58' E 001°51'0 0.0
2019-Jan-20 13:00N 50°58' E 001°51'0 0.0
2019-Jan-20 12:31N 50°58' E 001°51'0 0.0
2019-Jan-20 12:00N 50°58' E 001°51'0 0.0
2019-Jan-20 11:30N 50°58' E 001°51'0 1.0
2019-Jan-20 11:00N 50°58' E 001°50'1019.3
2019-Jan-20 10:30N 51°01' E 001°35'1019.8
2019-Jan-20 10:00N 51°07' E 001°23'2 4.0
2019-Jan-20 09:30N 51°07' E 001°20'0 0.1
2019-Jan-20 09:00N 51°07' E 001°20'713.4
2019-Jan-20 08:31N 51°04' E 001°29'1019.9
2019-Jan-20 08:01N 50°59' E 001°43'510.5
2019-Jan-20 07:30N 50°58' E 001°51'0 0.0
2019-Jan-20 07:00N 50°58' E 001°51'0 0.0
2019-Jan-20 06:30N 50°58' E 001°51'0 0.0
2019-Jan-20 06:00N 50°58' E 001°51'1 1.1
2019-Jan-20 05:31N 50°58' E 001°52'0 0.0
2019-Jan-20 05:00N 50°58' E 001°52'0 0.0
2019-Jan-20 04:30N 50°58' E 001°52'0 0.0
2019-Jan-20 04:00N 50°58' E 001°52'0 0.0
2019-Jan-20 03:30N 50°58' E 001°52'0 0.0
2019-Jan-20 03:00N 50°58' E 001°52'0 0.0
2019-Jan-20 02:30N 50°58' E 001°52'0 0.0
2019-Jan-20 02:00N 50°58' E 001°52'0 0.0
2019-Jan-20 01:30N 50°58' E 001°52'0 0.0
2019-Jan-20 01:00N 50°58' E 001°52'0 0.0
2019-Jan-20 00:30N 50°58' E 001°52'0 0.0
2019-Jan-20 00:01N 50°58' E 001°52'0 0.0
2019-Jan-19 23:30N 50°58' E 001°52'0 0.0
2019-Jan-19 23:00N 50°58' E 001°52'0 0.0
2019-Jan-19 22:30N 50°58' E 001°52'0 0.1
2019-Jan-19 22:00N 50°58' E 001°52'0 0.2
2019-Jan-19 21:30N 50°58' E 001°52'2 4.5
2019-Jan-19 21:00N 50°58' E 001°48'917.4
2019-Jan-19 20:31N 50°59' E 001°34'917.0
2019-Jan-19 20:00N 51°05' E 001°25'4 7.4
2019-Jan-19 19:29N 51°07' E 001°20'0 0.0
2019-Jan-19 18:57N 51°07' E 001°20'510.4
2019-Jan-19 18:31N 51°06' E 001°27'1020.0
2019-Jan-19 18:01N 51°01' E 001°40'714.3
2019-Jan-19 17:31N 50°58' E 001°51'0 0.0
2019-Jan-19 17:00N 50°58' E 001°51'0 0.3
2019-Jan-19 16:30N 50°58' E 001°51'612.6
2019-Jan-19 16:01N 50°58' E 001°41'917.4
2019-Jan-19 15:31N 51°02' E 001°29'812.5
2019-Jan-19 14:53N 51°07' E 001°20'0 0.0
2019-Jan-19 14:29N 51°07' E 001°20'0 0.0
2019-Jan-19 14:00N 51°07' E 001°20'713.6
2019-Jan-19 13:31N 51°06' E 001°30'1019.0
2019-Jan-19 13:00N 50°60' E 001°42'611.9
2019-Jan-19 12:30N 50°58' E 001°51'0 0.0
2019-Jan-19 12:00N 50°58' E 001°51'0 0.4
2019-Jan-19 11:30N 50°58' E 001°51'815.1
2019-Jan-19 11:00N 50°59' E 001°39'919.0
2019-Jan-19 10:30N 51°05' E 001°27'5 9.2
2019-Jan-19 10:00N 51°07' E 001°20'0 0.0
2019-Jan-19 09:30N 51°07' E 001°20'3 5.2
2019-Jan-19 09:01N 51°07' E 001°24'917.2
2019-Jan-19 08:31N 51°03' E 001°36'917.6
2019-Jan-19 08:00N 50°58' E 001°48'2 4.6
2019-Jan-19 07:30N 50°58' E 001°52'0 0.0
2019-Jan-19 07:00N 50°58' E 001°52'1 2.6
2019-Jan-19 06:31N 50°58' E 001°50'917.3
2019-Jan-19 06:00N 50°59' E 001°36'918.2
2019-Jan-19 05:30N 51°05' E 001°25'4 6.6
2019-Jan-19 04:56N 51°07' E 001°20'0 0.0
2019-Jan-19 04:30N 51°07' E 001°20'0 0.0
2019-Jan-19 03:59N 51°07' E 001°20'612.6
2019-Jan-19 03:30N 51°05' E 001°29'816.2
2019-Jan-19 03:00N 50°60' E 001°39'815.5
2019-Jan-19 02:31N 50°58' E 001°51'0 0.9
2019-Jan-19 02:00N 50°58' E 001°52'0 0.0
2019-Jan-19 01:30N 50°58' E 001°52'0 0.0
2019-Jan-19 01:01N 50°58' E 001°52'0 0.0
2019-Jan-19 00:30N 50°58' E 001°52'0 0.0
2019-Jan-19 00:00N 50°58' E 001°52'0 0.0
2019-Jan-18 23:30N 50°58' E 001°52'0 0.0
2019-Jan-18 23:01N 50°58' E 001°52'0 0.0
2019-Jan-18 22:30N 50°58' E 001°52'0 0.0
2019-Jan-18 22:00N 50°58' E 001°52'0 0.0
2019-Jan-18 21:30N 50°58' E 001°52'0 0.0
2019-Jan-18 21:00N 50°58' E 001°52'2 3.9
2019-Jan-18 20:30N 50°58' E 001°49'918.3
2019-Jan-18 20:00N 51°00' E 001°34'816.7
2019-Jan-18 19:30N 51°05' E 001°23'3 6.2
2019-Jan-18 19:00N 51°07' E 001°20'0 0.0
2019-Jan-18 18:30N 51°07' E 001°20'4 8.8
2019-Jan-18 18:01N 51°06' E 001°27'917.7
2019-Jan-18 17:31N 51°00' E 001°38'917.2
2019-Jan-18 17:01N 50°58' E 001°51'1 1.1
2019-Jan-18 16:31N 50°58' E 001°52'1 1.5
2019-Jan-18 16:00N 50°58' E 001°50'816.2
2019-Jan-18 15:30N 51°00' E 001°38'918.8
2019-Jan-18 15:00N 51°05' E 001°25'4 7.8
2019-Jan-18 14:30N 51°07' E 001°20'0 0.0
2019-Jan-18 14:00N 51°07' E 001°20'611.6
2019-Jan-18 13:30N 51°05' E 001°29'1019.3
2019-Jan-18 13:00N 51°00' E 001°42'713.1
2019-Jan-18 12:30N 50°58' E 001°52'0 0.0
2019-Jan-18 12:00N 50°58' E 001°52'2 3.9
2019-Jan-18 11:31N 50°58' E 001°49'918.3
2019-Jan-18 11:00N 51°01' E 001°35'1019.4
2019-Jan-18 10:30N 51°07' E 001°22'2 2.9
2019-Jan-18 09:58N 51°07' E 001°20'0 0.0
2019-Jan-18 09:30N 51°07' E 001°20'510.9
2019-Jan-18 09:01N 51°06' E 001°28'1019.1
2019-Jan-18 08:31N 51°00' E 001°41'714.3
2019-Jan-18 08:00N 50°58' E 001°52'0 0.0
2019-Jan-18 07:30N 50°58' E 001°52'0 0.3
2019-Jan-18 07:00N 50°58' E 001°51'4 7.1
2019-Jan-18 06:30N 50°58' E 001°46'917.3
2019-Jan-18 06:00N 51°01' E 001°33'917.6
2019-Jan-18 05:30N 51°07' E 001°22'2 2.7
2019-Jan-18 04:56N 51°07' E 001°20'0 0.0
2019-Jan-18 04:30N 51°07' E 001°20'0 0.0
2019-Jan-18 03:55N 51°07' E 001°20'410.2
2019-Jan-18 03:30N 51°06' E 001°27'816.9
2019-Jan-18 03:01N 51°02' E 001°38'815.8
2019-Jan-18 02:30N 50°58' E 001°49'1 2.8
2019-Jan-18 02:00N 50°58' E 001°52'0 0.0
2019-Jan-18 01:30N 50°58' E 001°52'0 0.0
2019-Jan-18 01:01N 50°58' E 001°52'0 0.0
2019-Jan-18 00:30N 50°58' E 001°52'0 0.0
2019-Jan-18 00:00N 50°58' E 001°52'0 0.0
2019-Jan-17 23:30N 50°58' E 001°52'0 0.0
2019-Jan-17 23:00N 50°58' E 001°52'0 0.0
2019-Jan-17 22:30N 50°58' E 001°52'0 0.0
2019-Jan-17 22:01N 50°58' E 001°52'1 1.0
2019-Jan-17 21:30N 50°58' E 001°51'714.0
2019-Jan-17 21:01N 50°59' E 001°40'917.7
2019-Jan-17 20:30N 51°03' E 001°28'611.1
2019-Jan-17 19:57N 51°07' E 001°20'0 0.0
2019-Jan-17 19:11N 51°07' E 001°20'0 1.5
2019-Jan-17 19:01N 51°07' E 001°20'714.9
2019-Jan-17 18:31N 51°05' E 001°32'1017.9
2019-Jan-17 17:58N 50°59' E 001°43'511.4
2019-Jan-17 17:30N 50°58' E 001°52'0 0.0
2019-Jan-17 17:01N 50°58' E 001°52'0 0.1
2019-Jan-17 16:30N 50°58' E 001°52'510.0
2019-Jan-17 16:00N 50°58' E 001°44'917.3
2019-Jan-17 15:30N 51°01' E 001°31'918.8
2019-Jan-17 15:00N 51°07' E 001°20'0 0.5
2019-Jan-17 14:30N 51°07' E 001°20'0 0.0
2019-Jan-17 13:59N 51°07' E 001°20'1 2.9
2019-Jan-17 13:31N 51°07' E 001°22'918.0
2019-Jan-17 13:01N 51°01' E 001°33'918.7
2019-Jan-17 12:31N 50°58' E 001°47'2 4.8
2019-Jan-17 12:00N 50°58' E 001°51'0 0.0
2019-Jan-17 11:30N 50°58' E 001°51'5 9.4
2019-Jan-17 11:00N 50°58' E 001°44'917.4
2019-Jan-17 10:30N 51°02' E 001°32'917.3
2019-Jan-17 10:00N 51°07' E 001°20'0 0.4
2019-Jan-17 09:30N 51°07' E 001°20'0 0.3
2019-Jan-17 09:01N 51°07' E 001°20'714.9
2019-Jan-17 08:30N 51°06' E 001°32'918.1
2019-Jan-17 08:00N 50°59' E 001°41'612.7
2019-Jan-17 07:31N 50°58' E 001°51'0 0.0
2019-Jan-17 07:01N 50°58' E 001°51'0 0.2
2019-Jan-17 06:31N 50°58' E 001°51'611.7
2019-Jan-17 06:01N 50°58' E 001°42'714.7
2019-Jan-17 05:30N 51°01' E 001°31'816.9
2019-Jan-17 05:01N 51°07' E 001°21'1 1.9
2019-Jan-17 04:29N 51°07' E 001°20'0 0.1
2019-Jan-17 04:00N 51°07' E 001°20'1515.2
2019-Jan-17 03:00N 50°60' E 001°41'713.8
2019-Jan-17 02:30N 50°58' E 001°52'0 0.0
2019-Jan-17 02:00N 50°58' E 001°52'0 0.0
2019-Jan-17 01:30N 50°58' E 001°52'0 0.0
2019-Jan-17 01:00N 50°58' E 001°52'0 0.0
2019-Jan-17 00:30N 50°58' E 001°52'0 0.0
2019-Jan-17 00:00N 50°58' E 001°52'0 0.0
2019-Jan-16 23:30N 50°58' E 001°52'0 0.0
2019-Jan-16 23:00N 50°58' E 001°52'0 0.0
2019-Jan-16 22:30N 50°58' E 001°52'0 0.0
2019-Jan-16 22:00N 50°58' E 001°52'0 0.0
2019-Jan-16 21:30N 50°58' E 001°52'1 1.6
2019-Jan-16 21:00N 50°58' E 001°50'1019.2
2019-Jan-16 20:30N 50°60' E 001°35'918.7
2019-Jan-16 20:00N 51°06' E 001°24'3 6.1
2019-Jan-16 19:30N 51°07' E 001°20'0 0.0
2019-Jan-16 18:59N 51°07' E 001°20'1 2.5
2019-Jan-16 18:30N 51°07' E 001°22'917.0
2019-Jan-16 18:00N 51°05' E 001°35'918.0
2019-Jan-16 17:30N 50°58' E 001°45'4 8.7
2019-Jan-16 17:00N 50°58' E 001°52'0 0.0
2019-Jan-16 16:30N 50°58' E 001°52'2 3.6
2019-Jan-16 16:01N 50°58' E 001°49'918.9
2019-Jan-16 15:30N 51°00' E 001°34'918.7
2019-Jan-16 15:00N 51°06' E 001°23'2 3.8
2019-Jan-16 14:28N 51°07' E 001°20'0 0.0
2019-Jan-16 13:56N 51°07' E 001°20'3 7.9
2019-Jan-16 13:30N 51°06' E 001°25'919.0
2019-Jan-16 13:00N 51°01' E 001°38'917.3
2019-Jan-16 12:30N 50°58' E 001°51'1 1.0
2019-Jan-16 12:00N 50°58' E 001°52'0 0.7
2019-Jan-16 11:30N 50°58' E 001°51'713.7
2019-Jan-16 11:01N 50°59' E 001°40'919.0
2019-Jan-16 10:31N 51°04' E 001°28'611.2
2019-Jan-16 09:59N 51°07' E 001°20'0 0.0
2019-Jan-16 09:28N 51°07' E 001°20'0 0.8
2019-Jan-16 09:00N 51°07' E 001°21'816.0
2019-Jan-16 08:30N 51°05' E 001°33'918.5
2019-Jan-16 08:00N 50°59' E 001°44'510.1
2019-Jan-16 07:31N 50°58' E 001°52'0 0.0
2019-Jan-16 07:00N 50°58' E 001°52'1 1.4
2019-Jan-16 06:30N 50°58' E 001°50'918.6
2019-Jan-16 06:00N 51°00' E 001°36'1019.1
2019-Jan-16 05:30N 51°06' E 001°24'3 5.2
2019-Jan-16 04:57N 51°07' E 001°20'0 0.0
2019-Jan-16 04:23N 51°07' E 001°20'0 0.0
2019-Jan-16 04:00N 51°07' E 001°20'510.8
2019-Jan-16 03:30N 51°06' E 001°28'919.0
2019-Jan-16 03:00N 51°00' E 001°41'714.5
2019-Jan-16 02:30N 50°58' E 001°52'0 0.0
2019-Jan-16 02:00N 50°58' E 001°52'0 0.0
2019-Jan-16 01:30N 50°58' E 001°52'0 0.0
2019-Jan-16 01:00N 50°58' E 001°52'0 0.0
2019-Jan-16 00:30N 50°58' E 001°52'0 0.0
2019-Jan-16 00:00N 50°58' E 001°52'0 0.0
2019-Jan-15 23:30N 50°58' E 001°52'0 0.0
2019-Jan-15 23:00N 50°58' E 001°52'0 0.0
2019-Jan-15 22:30N 50°58' E 001°52'0 0.0
2019-Jan-15 22:00N 50°58' E 001°52'0 0.0
2019-Jan-15 21:30N 50°58' E 001°52'1 2.2
2019-Jan-15 21:00N 50°58' E 001°50'611.3
2019-Jan-15 20:30N 50°59' E 001°41'1019.3
2019-Jan-15 20:00N 51°04' E 001°28'611.0
2019-Jan-15 19:27N 51°07' E 001°20'0 0.0
2019-Jan-15 18:59N 51°07' E 001°20'3 6.3
2019-Jan-15 18:31N 51°07' E 001°25'918.0
2019-Jan-15 18:00N 51°02' E 001°37'816.5
2019-Jan-15 17:30N 50°58' E 001°49'2 3.7
2019-Jan-15 17:00N 50°58' E 001°52'0 0.1
2019-Jan-15 16:30N 50°58' E 001°52'611.6
2019-Jan-15 16:00N 50°59' E 001°42'1019.4
2019-Jan-15 15:30N 51°03' E 001°28'710.6
2019-Jan-15 14:51N 51°07' E 001°20'0 0.0
2019-Jan-15 14:27N 51°07' E 001°20'0 0.3
2019-Jan-15 14:01N 51°07' E 001°20'816.5
2019-Jan-15 13:30N 51°04' E 001°32'918.7
2019-Jan-15 13:00N 50°59' E 001°44'5 9.5
2019-Jan-15 12:30N 50°58' E 001°52'0 0.0
2019-Jan-15 12:01N 50°58' E 001°52'1 1.1
2019-Jan-15 11:30N 50°58' E 001°51'816.3
2019-Jan-15 11:01N 50°60' E 001°38'1019.3
2019-Jan-15 10:31N 51°05' E 001°25'4 7.8
2019-Jan-15 10:00N 51°07' E 001°20'0 0.0
2019-Jan-15 09:28N 51°07' E 001°20'2 4.5
2019-Jan-15 09:00N 51°07' E 001°23'918.0
2019-Jan-15 08:30N 51°03' E 001°36'917.3
2019-Jan-15 08:01N 50°58' E 001°48'2 4.8
2019-Jan-15 07:30N 50°58' E 001°52'0 0.0
2019-Jan-15 07:00N 50°58' E 001°52'2 3.8
2019-Jan-15 06:31N 50°58' E 001°49'918.8
2019-Jan-15 06:00N 51°02' E 001°35'1019.3
2019-Jan-15 05:31N 51°07' E 001°22'1 2.2
2019-Jan-15 04:59N 51°07' E 001°20'0 0.0
2019-Jan-15 04:29N 51°07' E 001°20'0 0.1
2019-Jan-15 04:00N 51°07' E 001°20'612.6
2019-Jan-15 03:31N 51°06' E 001°30'918.6
2019-Jan-15 03:01N 50°60' E 001°41'713.4
2019-Jan-15 02:30N 50°58' E 001°51'0 0.0
2019-Jan-15 02:00N 50°58' E 001°51'0 0.0
2019-Jan-15 01:30N 50°58' E 001°51'0 0.0
2019-Jan-15 01:00N 50°58' E 001°51'0 0.0
2019-Jan-15 00:31N 50°58' E 001°51'0 0.0
2019-Jan-15 00:00N 50°58' E 001°51'0 0.0
2019-Jan-14 23:30N 50°58' E 001°51'0 0.0
2019-Jan-14 23:00N 50°58' E 001°51'0 0.0
2019-Jan-14 22:30N 50°58' E 001°51'0 0.0
2019-Jan-14 22:01N 50°58' E 001°51'0 0.0
2019-Jan-14 21:31N 50°58' E 001°51'0 0.0
2019-Jan-14 21:01N 50°58' E 001°51'0 0.3
2019-Jan-14 20:31N 50°58' E 001°51'815.7
2019-Jan-14 20:00N 50°59' E 001°38'919.0
2019-Jan-14 19:31N 51°04' E 001°26'5 9.1
2019-Jan-14 18:59N 51°07' E 001°20'0 0.0
2019-Jan-14 18:29N 51°07' E 001°20'1 2.6
2019-Jan-14 18:01N 51°07' E 001°22'918.7
2019-Jan-14 17:30N 51°03' E 001°35'917.6
2019-Jan-14 17:01N 50°58' E 001°47'2 4.9
2019-Jan-14 16:30N 50°58' E 001°51'0 0.0
2019-Jan-14 16:00N 50°58' E 001°51'815.8
2019-Jan-14 15:30N 50°59' E 001°39'1019.5
2019-Jan-14 15:00N 51°05' E 001°26'5 5.9
2019-Jan-14 14:14N 51°07' E 001°20'0 0.2
2019-Jan-14 14:00N 51°07' E 001°20'713.4
2019-Jan-14 13:30N 51°05' E 001°30'918.2
2019-Jan-14 13:00N 50°59' E 001°41'713.9
2019-Jan-14 12:30N 50°58' E 001°52'0 0.1
2019-Jan-14 12:00N 50°58' E 001°52'0 0.0
2019-Jan-14 11:29N 50°58' E 001°52'0 0.0
2019-Jan-14 10:58N 50°58' E 001°52'0 0.0
2019-Jan-14 10:30N 50°58' E 001°52'0 0.0
2019-Jan-14 10:00N 50°58' E 001°52'0 0.0
2019-Jan-14 09:30N 50°58' E 001°52'0 0.0
2019-Jan-14 09:00N 50°58' E 001°52'0 0.0
2019-Jan-14 08:30N 50°58' E 001°52'0 0.0
2019-Jan-14 08:00N 50°58' E 001°52'0 0.0
2019-Jan-14 07:30N 50°58' E 001°52'0 0.0
2019-Jan-14 07:00N 50°58' E 001°52'0 0.0
2019-Jan-14 06:30N 50°58' E 001°52'  
Track history (hours):
 
Tides and Currents Weather Stations Pressure Air Temp Water Temp Dewpoint Dewpoint Depression Visibility Wind Speed Wind Dir Waves Ship Positions

European Seaway

Operator: P & O Ferries

Last reported at 2019-Jan-24 06:00 UTC. Time now 2019-Jan-24 06:22 UTC.
Position N 51°02' E 001°34'.

Length 180 m; draft 5.5 m.

Type: Passenger vessel. MMSI: 232001040.

Date/timePositionNaut miles runAvg speedWind from/ knotsBaromVisibWave heightAir tempDewpointWater temp
2019-Jan-24 06:00N 51°02' E 001°34'1019.4
2019-Jan-24 05:30N 51°07' E 001°21'1 1.2
2019-Jan-24 05:01N 51°07' E 001°20'0 0.0
2019-Jan-24 04:29N 51°07' E 001°20'0 0.3
2019-Jan-24 04:01N 51°07' E 001°20'815.2
2019-Jan-24 03:30N 51°05' E 001°31'917.2
2019-Jan-24 03:00N 50°59' E 001°42'611.2
2019-Jan-24 02:30N 50°58' E 001°51'0 0.0
2019-Jan-24 02:00N 50°58' E 001°51'0 0.0
2019-Jan-24 01:28N 50°58' E 001°51'2 3.8
2019-Jan-24 01:00N 50°58' E 001°48'1019.0
2019-Jan-24 00:30N 51°01' E 001°34'1019.8
2019-Jan-24 00:00N 51°07' E 001°21'1 1.5
2019-Jan-23 23:30N 51°07' E 001°20'0 0.3
2019-Jan-23 23:00N 51°07' E 001°20'816.2
2019-Jan-23 22:30N 51°03' E 001°31'1020.3
2019-Jan-23 22:00N 50°58' E 001°45'4 7.1
2019-Jan-23 21:30N 50°58' E 001°51'0 0.0
2019-Jan-23 21:00N 50°58' E 001°51'5 9.6
2019-Jan-23 20:30N 50°58' E 001°43'918.7
2019-Jan-23 20:01N 51°03' E 001°31'8 6.4
2019-Jan-23 18:45N 51°07' E 001°20'1 4.3
2019-Jan-23 18:31N 51°07' E 001°22'1019.3
2019-Jan-23 18:00N 51°03' E 001°36'918.8
2019-Jan-23 17:30N 50°58' E 001°48'2 4.0
2019-Jan-23 17:00N 50°58' E 001°52'0 0.0
2019-Jan-23 16:30N 50°58' E 001°52'4 7.3
2019-Jan-23 16:01N 50°58' E 001°46'1019.6
2019-Jan-23 15:30N 51°02' E 001°32'917.5
2019-Jan-23 14:59N 51°07' E 001°20'0 0.0
2019-Jan-23 14:30N 51°07' E 001°20'0 0.2
2019-Jan-23 14:00N 51°07' E 001°20'815.8
2019-Jan-23 13:30N 51°05' E 001°32'918.4
2019-Jan-23 13:00N 50°59' E 001°44'510.2
2019-Jan-23 12:30N 50°58' E 001°52'0 0.0
2019-Jan-23 12:00N 50°58' E 001°52'1 2.1
2019-Jan-23 11:31N 50°58' E 001°50'1020.0
2019-Jan-23 11:00N 50°60' E 001°34'1019.9
2019-Jan-23 10:31N 51°05' E 001°21'2 4.1
2019-Jan-23 09:57N 51°07' E 001°20'0 0.0
2019-Jan-23 09:30N 51°07' E 001°20'5 9.8
2019-Jan-23 09:01N 51°05' E 001°27'1019.6
2019-Jan-23 08:30N 50°60' E 001°40'815.2
2019-Jan-23 08:00N 50°58' E 001°52'0 0.1
2019-Jan-23 07:31N 50°58' E 001°52'0 0.0
2019-Jan-23 07:01N 50°58' E 001°52'4 7.6
2019-Jan-23 06:31N 50°58' E 001°46'917.7
2019-Jan-23 06:01N 51°02' E 001°33'918.8
2019-Jan-23 05:31N 51°07' E 001°21'0 0.9
2019-Jan-23 05:00N 51°07' E 001°20'0 0.0
2019-Jan-23 04:30N 51°07' E 001°20'0 0.4
2019-Jan-23 04:01N 51°07' E 001°20'816.3
2019-Jan-23 03:30N 51°05' E 001°33'918.0
2019-Jan-23 03:00N 50°59' E 001°43'510.4
2019-Jan-23 02:30N 50°58' E 001°52'0 0.0
2019-Jan-23 02:00N 50°58' E 001°52'0 0.0
2019-Jan-23 01:30N 50°58' E 001°52'0 0.0
2019-Jan-23 01:00N 50°58' E 001°52'0 0.0
2019-Jan-23 00:30N 50°58' E 001°52'0 0.0
2019-Jan-22 23:58N 50°58' E 001°52'0 0.0
2019-Jan-22 23:28N 50°58' E 001°52'0 0.0
2019-Jan-22 22:58N 50°58' E 001°52'0 0.0
2019-Jan-22 22:28N 50°58' E 001°52'0 0.0
2019-Jan-22 21:46N 50°58' E 001°52'0 0.0
2019-Jan-22 21:28N 50°58' E 001°52'1 2.9
2019-Jan-22 21:00N 50°58' E 001°50'816.4
2019-Jan-22 20:31N 50°59' E 001°37'918.3
2019-Jan-22 20:01N 51°05' E 001°25'4 6.1
2019-Jan-22 19:21N 51°07' E 001°20'0 0.0
2019-Jan-22 19:00N 51°07' E 001°20'3 6.2
2019-Jan-22 18:30N 51°07' E 001°25'1019.4
2019-Jan-22 18:00N 51°02' E 001°38'917.4
2019-Jan-22 17:30N 50°58' E 001°51'1 1.2
2019-Jan-22 17:00N 50°58' E 001°52'0 0.0
2019-Jan-22 16:30N 50°58' E 001°52'613.2
2019-Jan-22 16:00N 50°58' E 001°41'1019.1
2019-Jan-22 15:31N 51°04' E 001°29'712.5
2019-Jan-22 14:59N 51°07' E 001°20'0 0.0
2019-Jan-22 14:30N 51°07' E 001°20'2 4.0
2019-Jan-22 14:00N 51°07' E 001°23'917.5
2019-Jan-22 13:30N 51°03' E 001°35'917.3
2019-Jan-22 13:00N 50°58' E 001°47'3 6.0
2019-Jan-22 12:31N 50°58' E 001°52'0 0.0
2019-Jan-22 12:01N 50°58' E 001°52'3 5.4
2019-Jan-22 11:30N 50°58' E 001°47'917.9
2019-Jan-22 11:01N 51°00' E 001°34'918.3
2019-Jan-22 10:31N 51°06' E 001°23'2 4.1
2019-Jan-22 10:00N 51°07' E 001°20'0 0.0
2019-Jan-22 09:30N 51°07' E 001°20'3 6.7
2019-Jan-22 09:00N 51°07' E 001°25'918.8
2019-Jan-22 08:30N 51°02' E 001°38'816.7
2019-Jan-22 08:01N 50°58' E 001°50'1 1.9
2019-Jan-22 07:30N 50°58' E 001°52'0 0.0
2019-Jan-22 07:00N 50°58' E 001°52'3 6.7
2019-Jan-22 06:30N 50°58' E 001°46'817.0
2019-Jan-22 06:00N 51°01' E 001°34'918.6
2019-Jan-22 05:30N 51°07' E 001°22'2 3.0
2019-Jan-22 05:00N 51°07' E 001°20'0 0.0
2019-Jan-22 04:30N 51°07' E 001°20'0 0.3
2019-Jan-22 04:01N 51°07' E 001°20'1616.4
2019-Jan-22 03:00N 50°59' E 001°43'611.4
2019-Jan-22 02:30N 50°58' E 001°52'0 0.0
2019-Jan-22 02:00N 50°58' E 001°52'0 0.0
2019-Jan-22 01:30N 50°58' E 001°52'0 0.0
2019-Jan-22 01:00N 50°58' E 001°52'0 0.0
2019-Jan-22 00:30N 50°58' E 001°52'0 0.0
2019-Jan-22 00:00N 50°58' E 001°52'0 0.0
2019-Jan-21 23:30N 50°58' E 001°52'0 0.0
2019-Jan-21 23:00N 50°58' E 001°52'0 0.0
2019-Jan-21 22:30N 50°58' E 001°52'0 0.0
2019-Jan-21 21:59N 50°58' E 001°52'0 0.0
2019-Jan-21 21:30N 50°58' E 001°52'0 0.0
2019-Jan-21 20:59N 50°58' E 001°52'1 2.8
2019-Jan-21 20:31N 50°59' E 001°50'816.3
2019-Jan-21 20:00N 50°60' E 001°37'917.0
2019-Jan-21 19:30N 51°05' E 001°26'4 8.8
2019-Jan-21 19:01N 51°07' E 001°20'0 0.0
2019-Jan-21 18:30N 51°07' E 001°20'510.5
2019-Jan-21 18:00N 51°06' E 001°28'917.9
2019-Jan-21 17:30N 51°01' E 001°40'714.8
2019-Jan-21 17:01N 50°58' E 001°51'0 0.5
2019-Jan-21 16:30N 50°58' E 001°51'0 0.0
2019-Jan-21 16:00N 50°58' E 001°51'611.6
2019-Jan-21 15:31N 50°58' E 001°42'1019.8
2019-Jan-21 15:01N 51°04' E 001°29'713.0
2019-Jan-21 14:30N 51°07' E 001°20'0 0.0
2019-Jan-21 13:56N 51°07' E 001°20'4 9.2
2019-Jan-21 13:31N 51°07' E 001°26'918.6
2019-Jan-21 13:01N 51°01' E 001°38'816.4
2019-Jan-21 12:31N 50°58' E 001°51'0 0.7
2019-Jan-21 12:01N 50°58' E 001°51'0 0.0
2019-Jan-21 11:29N 50°58' E 001°51'613.2
2019-Jan-21 11:00N 50°59' E 001°41'918.7
2019-Jan-21 10:30N 51°03' E 001°28'612.9
2019-Jan-21 10:00N 51°07' E 001°20'0 0.0
2019-Jan-21 09:26N 51°07' E 001°20'0 0.5
2019-Jan-21 09:00N 51°07' E 001°20'816.4
2019-Jan-21 08:30N 51°04' E 001°32'1019.6
2019-Jan-21 08:00N 50°58' E 001°45'4 8.1
2019-Jan-21 07:31N 50°58' E 001°51'0 0.0
2019-Jan-21 07:00N 50°58' E 001°51'3 5.4
2019-Jan-21 06:31N 50°58' E 001°47'815.5
2019-Jan-21 06:00N 51°01' E 001°35'917.6
2019-Jan-21 05:31N 51°06' E 001°24'3 4.5
2019-Jan-21 04:53N 51°07' E 001°20'0 0.0
2019-Jan-21 04:28N 51°07' E 001°20'0 0.3
2019-Jan-21 04:00N 51°07' E 001°20'713.9
2019-Jan-21 03:31N 51°04' E 001°30'816.4
2019-Jan-21 03:01N 50°60' E 001°41'612.8
2019-Jan-21 02:31N 50°58' E 001°51'0 0.3
2019-Jan-21 02:00N 50°58' E 001°51'0 0.0
2019-Jan-21 01:30N 50°58' E 001°51'0 0.0
2019-Jan-21 01:01N 50°58' E 001°51'0 0.0
2019-Jan-21 00:30N 50°58' E 001°51'0 0.0
2019-Jan-21 00:00N 50°58' E 001°51'0 0.0
2019-Jan-20 23:29N 50°58' E 001°51'0 0.0
2019-Jan-20 23:00N 50°58' E 001°51'0 0.0
2019-Jan-20 22:07N 50°58' E 001°51'0 0.0
2019-Jan-20 21:49N 50°58' E 001°51'0 0.0
2019-Jan-20 21:01N 50°58' E 001°51'0 0.0
2019-Jan-20 21:00N 50°58' E 001°51'3 5.9
2019-Jan-20 20:30N 50°58' E 001°46'815.6
2019-Jan-20 20:00N 51°00' E 001°34'815.2
2019-Jan-20 19:30N 51°05' E 001°25'4 7.0
2019-Jan-20 18:56N 51°07' E 001°20'0 0.0
2019-Jan-20 18:30N 51°07' E 001°20'5 9.6
2019-Jan-20 18:00N 51°05' E 001°27'917.9
2019-Jan-20 17:30N 51°00' E 001°39'815.8
2019-Jan-20 17:00N 50°58' E 001°51'0 0.2
2019-Jan-20 16:24N 50°58' E 001°51'0 0.0
2019-Jan-20 16:00N 50°58' E 001°51'0 0.0
2019-Jan-20 15:30N 50°58' E 001°51'0 0.0
2019-Jan-20 15:01N 50°58' E 001°51'0 0.0
2019-Jan-20 14:30N 50°58' E 001°51'0 0.0
2019-Jan-20 14:00N 50°58' E 001°51'0 0.0
2019-Jan-20 13:30N 50°58' E 001°51'0 0.0
2019-Jan-20 13:00N 50°58' E 001°51'0 0.0
2019-Jan-20 12:31N 50°58' E 001°51'0 0.0
2019-Jan-20 12:00N 50°58' E 001°51'0 0.0
2019-Jan-20 11:30N 50°58' E 001°51'0 1.0
2019-Jan-20 11:00N 50°58' E 001°50'1019.3
2019-Jan-20 10:30N 51°01' E 001°35'1019.8
2019-Jan-20 10:00N 51°07' E 001°23'2 4.0
2019-Jan-20 09:30N 51°07' E 001°20'0 0.1
2019-Jan-20 09:00N 51°07' E 001°20'713.4
2019-Jan-20 08:31N 51°04' E 001°29'1019.9
2019-Jan-20 08:01N 50°59' E 001°43'510.5
2019-Jan-20 07:30N 50°58' E 001°51'0 0.0
2019-Jan-20 07:00N 50°58' E 001°51'0 0.0
2019-Jan-20 06:30N 50°58' E 001°51'0 0.0
2019-Jan-20 06:00N 50°58' E 001°51'1 1.1
2019-Jan-20 05:31N 50°58' E 001°52'0 0.0
2019-Jan-20 05:00N 50°58' E 001°52'0 0.0
2019-Jan-20 04:30N 50°58' E 001°52'0 0.0
2019-Jan-20 04:00N 50°58' E 001°52'0 0.0
2019-Jan-20 03:30N 50°58' E 001°52'0 0.0
2019-Jan-20 03:00N 50°58' E 001°52'0 0.0
2019-Jan-20 02:30N 50°58' E 001°52'0 0.0
2019-Jan-20 02:00N 50°58' E 001°52'0 0.0
2019-Jan-20 01:30N 50°58' E 001°52'0 0.0
2019-Jan-20 01:00N 50°58' E 001°52'0 0.0
2019-Jan-20 00:30N 50°58' E 001°52'0 0.0
2019-Jan-20 00:01N 50°58' E 001°52'0 0.0
2019-Jan-19 23:30N 50°58' E 001°52'0 0.0
2019-Jan-19 23:00N 50°58' E 001°52'0 0.0
2019-Jan-19 22:30N 50°58' E 001°52'0 0.1
2019-Jan-19 22:00N 50°58' E 001°52'0 0.2
2019-Jan-19 21:30N 50°58' E 001°52'2 4.5
2019-Jan-19 21:00N 50°58' E 001°48'917.4
2019-Jan-19 20:31N 50°59' E 001°34'917.0
2019-Jan-19 20:00N 51°05' E 001°25'4 7.4
2019-Jan-19 19:29N 51°07' E 001°20'0 0.0
2019-Jan-19 18:57N 51°07' E 001°20'510.4
2019-Jan-19 18:31N 51°06' E 001°27'1020.0
2019-Jan-19 18:01N 51°01' E 001°40'714.3
2019-Jan-19 17:31N 50°58' E 001°51'0 0.0
2019-Jan-19 17:00N 50°58' E 001°51'0 0.3
2019-Jan-19 16:30N 50°58' E 001°51'612.6
2019-Jan-19 16:01N 50°58' E 001°41'917.4
2019-Jan-19 15:31N 51°02' E 001°29'812.5
2019-Jan-19 14:53N 51°07' E 001°20'0 0.0
2019-Jan-19 14:29N 51°07' E 001°20'0 0.0
2019-Jan-19 14:00N 51°07' E 001°20'713.6
2019-Jan-19 13:31N 51°06' E 001°30'1019.0
2019-Jan-19 13:00N 50°60' E 001°42'611.9
2019-Jan-19 12:30N 50°58' E 001°51'0 0.0
2019-Jan-19 12:00N 50°58' E 001°51'0 0.4
2019-Jan-19 11:30N 50°58' E 001°51'815.1
2019-Jan-19 11:00N 50°59' E 001°39'919.0
2019-Jan-19 10:30N 51°05' E 001°27'5 9.2
2019-Jan-19 10:00N 51°07' E 001°20'0 0.0
2019-Jan-19 09:30N 51°07' E 001°20'3 5.2
2019-Jan-19 09:01N 51°07' E 001°24'917.2
2019-Jan-19 08:31N 51°03' E 001°36'917.6
2019-Jan-19 08:00N 50°58' E 001°48'2 4.6
2019-Jan-19 07:30N 50°58' E 001°52'0 0.0
2019-Jan-19 07:00N 50°58' E 001°52'1 2.6
2019-Jan-19 06:31N 50°58' E 001°50'917.3
2019-Jan-19 06:00N 50°59' E 001°36'918.2
2019-Jan-19 05:30N 51°05' E 001°25'4 6.6
2019-Jan-19 04:56N 51°07' E 001°20'0 0.0
2019-Jan-19 04:30N 51°07' E 001°20'0 0.0
2019-Jan-19 03:59N 51°07' E 001°20'612.6
2019-Jan-19 03:30N 51°05' E 001°29'816.2
2019-Jan-19 03:00N 50°60' E 001°39'815.5
2019-Jan-19 02:31N 50°58' E 001°51'0 0.9
2019-Jan-19 02:00N 50°58' E 001°52'0 0.0
2019-Jan-19 01:30N 50°58' E 001°52'0 0.0
2019-Jan-19 01:01N 50°58' E 001°52'0 0.0
2019-Jan-19 00:30N 50°58' E 001°52'0 0.0
2019-Jan-19 00:00N 50°58' E 001°52'0 0.0
2019-Jan-18 23:30N 50°58' E 001°52'0 0.0
2019-Jan-18 23:01N 50°58' E 001°52'0 0.0
2019-Jan-18 22:30N 50°58' E 001°52'0 0.0
2019-Jan-18 22:00N 50°58' E 001°52'0 0.0
2019-Jan-18 21:30N 50°58' E 001°52'0 0.0
2019-Jan-18 21:00N 50°58' E 001°52'2 3.9
2019-Jan-18 20:30N 50°58' E 001°49'918.3
2019-Jan-18 20:00N 51°00' E 001°34'816.7
2019-Jan-18 19:30N 51°05' E 001°23'3 6.2
2019-Jan-18 19:00N 51°07' E 001°20'0 0.0
2019-Jan-18 18:30N 51°07' E 001°20'4 8.8
2019-Jan-18 18:01N 51°06' E 001°27'917.7
2019-Jan-18 17:31N 51°00' E 001°38'917.2
2019-Jan-18 17:01N 50°58' E 001°51'1 1.1
2019-Jan-18 16:31N 50°58' E 001°52'1 1.5
2019-Jan-18 16:00N 50°58' E 001°50'816.2
2019-Jan-18 15:30N 51°00' E 001°38'918.8
2019-Jan-18 15:00N 51°05' E 001°25'4 7.8
2019-Jan-18 14:30N 51°07' E 001°20'0 0.0
2019-Jan-18 14:00N 51°07' E 001°20'611.6
2019-Jan-18 13:30N 51°05' E 001°29'1019.3
2019-Jan-18 13:00N 51°00' E 001°42'713.1
2019-Jan-18 12:30N 50°58' E 001°52'0 0.0
2019-Jan-18 12:00N 50°58' E 001°52'2 3.9
2019-Jan-18 11:31N 50°58' E 001°49'918.3
2019-Jan-18 11:00N 51°01' E 001°35'1019.4
2019-Jan-18 10:30N 51°07' E 001°22'2 2.9
2019-Jan-18 09:58N 51°07' E 001°20'0 0.0
2019-Jan-18 09:30N 51°07' E 001°20'510.9
2019-Jan-18 09:01N 51°06' E 001°28'1019.1
2019-Jan-18 08:31N 51°00' E 001°41'714.3
2019-Jan-18 08:00N 50°58' E 001°52'0 0.0
2019-Jan-18 07:30N 50°58' E 001°52'0 0.3
2019-Jan-18 07:00N 50°58' E 001°51'4 7.1
2019-Jan-18 06:30N 50°58' E 001°46'917.3
2019-Jan-18 06:00N 51°01' E 001°33'917.6
2019-Jan-18 05:30N 51°07' E 001°22'2 2.7
2019-Jan-18 04:56N 51°07' E 001°20'0 0.0
2019-Jan-18 04:30N 51°07' E 001°20'0 0.0
2019-Jan-18 03:55N 51°07' E 001°20'410.2
2019-Jan-18 03:30N 51°06' E 001°27'816.9
2019-Jan-18 03:01N 51°02' E 001°38'815.8
2019-Jan-18 02:30N 50°58' E 001°49'1 2.8
2019-Jan-18 02:00N 50°58' E 001°52'0 0.0
2019-Jan-18 01:30N 50°58' E 001°52'0 0.0
2019-Jan-18 01:01N 50°58' E 001°52'0 0.0
2019-Jan-18 00:30N 50°58' E 001°52'0 0.0
2019-Jan-18 00:00N 50°58' E 001°52'0 0.0
2019-Jan-17 23:30N 50°58' E 001°52'0 0.0
2019-Jan-17 23:00N 50°58' E 001°52'0 0.0
2019-Jan-17 22:30N 50°58' E 001°52'0 0.0
2019-Jan-17 22:01N 50°58' E 001°52'1 1.0
2019-Jan-17 21:30N 50°58' E 001°51'714.0
2019-Jan-17 21:01N 50°59' E 001°40'917.7
2019-Jan-17 20:30N 51°03' E 001°28'611.1
2019-Jan-17 19:57N 51°07' E 001°20'0 0.0
2019-Jan-17 19:11N 51°07' E 001°20'0 1.5
2019-Jan-17 19:01N 51°07' E 001°20'714.9
2019-Jan-17 18:31N 51°05' E 001°32'1017.9
2019-Jan-17 17:58N 50°59' E 001°43'511.4
2019-Jan-17 17:30N 50°58' E 001°52'0 0.0
2019-Jan-17 17:01N 50°58' E 001°52'0 0.1
2019-Jan-17 16:30N 50°58' E 001°52'510.0
2019-Jan-17 16:00N 50°58' E 001°44'917.3
2019-Jan-17 15:30N 51°01' E 001°31'918.8
2019-Jan-17 15:00N 51°07' E 001°20'0 0.5
2019-Jan-17 14:30N 51°07' E 001°20'0 0.0
2019-Jan-17 13:59N 51°07' E 001°20'1 2.9
2019-Jan-17 13:31N 51°07' E 001°22'918.0
2019-Jan-17 13:01N 51°01' E 001°33'918.7
2019-Jan-17 12:31N 50°58' E 001°47'2 4.8
2019-Jan-17 12:00N 50°58' E 001°51'0 0.0
2019-Jan-17 11:30N 50°58' E 001°51'5 9.4
2019-Jan-17 11:00N 50°58' E 001°44'917.4
2019-Jan-17 10:30N 51°02' E 001°32'917.3
2019-Jan-17 10:00N 51°07' E 001°20'0 0.4
2019-Jan-17 09:30N 51°07' E 001°20'0 0.3
2019-Jan-17 09:01N 51°07' E 001°20'714.9
2019-Jan-17 08:30N 51°06' E 001°32'918.1
2019-Jan-17 08:00N 50°59' E 001°41'612.7
2019-Jan-17 07:31N 50°58' E 001°51'0 0.0
2019-Jan-17 07:01N 50°58' E 001°51'0 0.2
2019-Jan-17 06:31N 50°58' E 001°51'611.7
2019-Jan-17 06:01N 50°58' E 001°42'714.7
2019-Jan-17 05:30N 51°01' E 001°31'816.9
2019-Jan-17 05:01N 51°07' E 001°21'1 1.9
2019-Jan-17 04:29N 51°07' E 001°20'0 0.1
2019-Jan-17 04:00N 51°07' E 001°20'1515.2
2019-Jan-17 03:00N 50°60' E 001°41'713.8
2019-Jan-17 02:30N 50°58' E 001°52'0 0.0
2019-Jan-17 02:00N 50°58' E 001°52'0 0.0
2019-Jan-17 01:30N 50°58' E 001°52'0 0.0
2019-Jan-17 01:00N 50°58' E 001°52'0 0.0
2019-Jan-17 00:30N 50°58' E 001°52'0 0.0
2019-Jan-17 00:00N 50°58' E 001°52'0 0.0
2019-Jan-16 23:30N 50°58' E 001°52'0 0.0
2019-Jan-16 23:00N 50°58' E 001°52'0 0.0
2019-Jan-16 22:30N 50°58' E 001°52'0 0.0
2019-Jan-16 22:00N 50°58' E 001°52'0 0.0
2019-Jan-16 21:30N 50°58' E 001°52'1 1.6
2019-Jan-16 21:00N 50°58' E 001°50'1019.2
2019-Jan-16 20:30N 50°60' E 001°35'918.7
2019-Jan-16 20:00N 51°06' E 001°24'3 6.1
2019-Jan-16 19:30N 51°07' E 001°20'0 0.0
2019-Jan-16 18:59N 51°07' E 001°20'1 2.5
2019-Jan-16 18:30N 51°07' E 001°22'917.0
2019-Jan-16 18:00N 51°05' E 001°35'918.0
2019-Jan-16 17:30N 50°58' E 001°45'4 8.7
2019-Jan-16 17:00N 50°58' E 001°52'0 0.0
2019-Jan-16 16:30N 50°58' E 001°52'2 3.6
2019-Jan-16 16:01N 50°58' E 001°49'918.9
2019-Jan-16 15:30N 51°00' E 001°34'918.7
2019-Jan-16 15:00N 51°06' E 001°23'2 3.8
2019-Jan-16 14:28N 51°07' E 001°20'0 0.0
2019-Jan-16 13:56N 51°07' E 001°20'3 7.9
2019-Jan-16 13:30N 51°06' E 001°25'919.0
2019-Jan-16 13:00N 51°01' E 001°38'917.3
2019-Jan-16 12:30N 50°58' E 001°51'1 1.0
2019-Jan-16 12:00N 50°58' E 001°52'0 0.7
2019-Jan-16 11:30N 50°58' E 001°51'713.7
2019-Jan-16 11:01N 50°59' E 001°40'919.0
2019-Jan-16 10:31N 51°04' E 001°28'611.2
2019-Jan-16 09:59N 51°07' E 001°20'0 0.0
2019-Jan-16 09:28N 51°07' E 001°20'0 0.8
2019-Jan-16 09:00N 51°07' E 001°21'816.0
2019-Jan-16 08:30N 51°05' E 001°33'918.5
2019-Jan-16 08:00N 50°59' E 001°44'510.1
2019-Jan-16 07:31N 50°58' E 001°52'0 0.0
2019-Jan-16 07:00N 50°58' E 001°52'1 1.4
2019-Jan-16 06:30N 50°58' E 001°50'918.6
2019-Jan-16 06:00N 51°00' E 001°36'1019.1
2019-Jan-16 05:30N 51°06' E 001°24'3 5.2
2019-Jan-16 04:57N 51°07' E 001°20'0 0.0
2019-Jan-16 04:23N 51°07' E 001°20'0 0.0
2019-Jan-16 04:00N 51°07' E 001°20'510.8
2019-Jan-16 03:30N 51°06' E 001°28'919.0
2019-Jan-16 03:00N 51°00' E 001°41'714.5
2019-Jan-16 02:30N 50°58' E 001°52'0 0.0
2019-Jan-16 02:00N 50°58' E 001°52'0 0.0
2019-Jan-16 01:30N 50°58' E 001°52'0 0.0
2019-Jan-16 01:00N 50°58' E 001°52'0 0.0
2019-Jan-16 00:30N 50°58' E 001°52'0 0.0
2019-Jan-16 00:00N 50°58' E 001°52'0 0.0
2019-Jan-15 23:30N 50°58' E 001°52'0 0.0
2019-Jan-15 23:00N 50°58' E 001°52'0 0.0
2019-Jan-15 22:30N 50°58' E 001°52'0 0.0
2019-Jan-15 22:00N 50°58' E 001°52'0 0.0
2019-Jan-15 21:30N 50°58' E 001°52'1 2.2
2019-Jan-15 21:00N 50°58' E 001°50'611.3
2019-Jan-15 20:30N 50°59' E 001°41'1019.3
2019-Jan-15 20:00N 51°04' E 001°28'611.0
2019-Jan-15 19:27N 51°07' E 001°20'0 0.0
2019-Jan-15 18:59N 51°07' E 001°20'3 6.3
2019-Jan-15 18:31N 51°07' E 001°25'918.0
2019-Jan-15 18:00N 51°02' E 001°37'816.5
2019-Jan-15 17:30N 50°58' E 001°49'2 3.7
2019-Jan-15 17:00N 50°58' E 001°52'0 0.1
2019-Jan-15 16:30N 50°58' E 001°52'611.6
2019-Jan-15 16:00N 50°59' E 001°42'1019.4
2019-Jan-15 15:30N 51°03' E 001°28'710.6
2019-Jan-15 14:51N 51°07' E 001°20'0 0.0
2019-Jan-15 14:27N 51°07' E 001°20'0 0.3
2019-Jan-15 14:01N 51°07' E 001°20'816.5
2019-Jan-15 13:30N 51°04' E 001°32'918.7
2019-Jan-15 13:00N 50°59' E 001°44'5 9.5
2019-Jan-15 12:30N 50°58' E 001°52'0 0.0
2019-Jan-15 12:01N 50°58' E 001°52'1 1.1
2019-Jan-15 11:30N 50°58' E 001°51'816.3
2019-Jan-15 11:01N 50°60' E 001°38'1019.3
2019-Jan-15 10:31N 51°05' E 001°25'4 7.8
2019-Jan-15 10:00N 51°07' E 001°20'0 0.0
2019-Jan-15 09:28N 51°07' E 001°20'2 4.5
2019-Jan-15 09:00N 51°07' E 001°23'918.0
2019-Jan-15 08:30N 51°03' E 001°36'917.3
2019-Jan-15 08:01N 50°58' E 001°48'2 4.8
2019-Jan-15 07:30N 50°58' E 001°52'0 0.0
2019-Jan-15 07:00N 50°58' E 001°52'2 3.8
2019-Jan-15 06:31N 50°58' E 001°49'918.8
2019-Jan-15 06:00N 51°02' E 001°35'1019.3
2019-Jan-15 05:31N 51°07' E 001°22'1 2.2
2019-Jan-15 04:59N 51°07' E 001°20'0 0.0
2019-Jan-15 04:29N 51°07' E 001°20'0 0.1
2019-Jan-15 04:00N 51°07' E 001°20'612.6
2019-Jan-15 03:31N 51°06' E 001°30'918.6
2019-Jan-15 03:01N 50°60' E 001°41'713.4
2019-Jan-15 02:30N 50°58' E 001°51'0 0.0
2019-Jan-15 02:00N 50°58' E 001°51'0 0.0
2019-Jan-15 01:30N 50°58' E 001°51'0 0.0
2019-Jan-15 01:00N 50°58' E 001°51'0 0.0
2019-Jan-15 00:31N 50°58' E 001°51'0 0.0
2019-Jan-15 00:00N 50°58' E 001°51'0 0.0
2019-Jan-14 23:30N 50°58' E 001°51'0 0.0
2019-Jan-14 23:00N 50°58' E 001°51'0 0.0
2019-Jan-14 22:30N 50°58' E 001°51'0 0.0
2019-Jan-14 22:01N 50°58' E 001°51'0 0.0
2019-Jan-14 21:31N 50°58' E 001°51'0 0.0
2019-Jan-14 21:01N 50°58' E 001°51'0 0.3
2019-Jan-14 20:31N 50°58' E 001°51'815.7
2019-Jan-14 20:00N 50°59' E 001°38'919.0
2019-Jan-14 19:31N 51°04' E 001°26'5 9.1
2019-Jan-14 18:59N 51°07' E 001°20'0 0.0
2019-Jan-14 18:29N 51°07' E 001°20'1 2.6
2019-Jan-14 18:01N 51°07' E 001°22'918.7
2019-Jan-14 17:30N 51°03' E 001°35'917.6
2019-Jan-14 17:01N 50°58' E 001°47'2 4.9
2019-Jan-14 16:30N 50°58' E 001°51'0 0.0
2019-Jan-14 16:00N 50°58' E 001°51'815.8
2019-Jan-14 15:30N 50°59' E 001°39'1019.5
2019-Jan-14 15:00N 51°05' E 001°26'5 5.9
2019-Jan-14 14:14N 51°07' E 001°20'0 0.2
2019-Jan-14 14:00N 51°07' E 001°20'713.4
2019-Jan-14 13:30N 51°05' E 001°30'918.2
2019-Jan-14 13:00N 50°59' E 001°41'713.9
2019-Jan-14 12:30N 50°58' E 001°52'0 0.1
2019-Jan-14 12:00N 50°58' E 001°52'0 0.0
2019-Jan-14 11:29N 50°58' E 001°52'0 0.0
2019-Jan-14 10:58N 50°58' E 001°52'0 0.0
2019-Jan-14 10:30N 50°58' E 001°52'0 0.0
2019-Jan-14 10:00N 50°58' E 001°52'0 0.0
2019-Jan-14 09:30N 50°58' E 001°52'0 0.0
2019-Jan-14 09:00N 50°58' E 001°52'0 0.0
2019-Jan-14 08:30N 50°58' E 001°52'0 0.0
2019-Jan-14 08:00N 50°58' E 001°52'0 0.0
2019-Jan-14 07:30N 50°58' E 001°52'0 0.0
2019-Jan-14 07:00N 50°58' E 001°52'0 0.0
2019-Jan-14 06:30N 50°58' E 001°52'  

Dump ship's entire track history